Agana Heights, GU

2:45 AM ChST on May 23, 2015 (GMT +1000)
Maite | | Change Station
CLOSE
Current Station
Personal Weather Station
Location: Maite, GU
Elevation: 140 ft
Nearby Weather Stations

Elev 140 ft 13.48 °N, 144.76 °E | Updated 14 seconds ago

Light Rain
Light Rain
79.3 °F
Feels Like 83 °F
N
6.0
Wind Variable Wind from East
Gusts 11.0 mph

Today
High -- | Low -- °F
--% Chance of Precip.
Yesterday
High -- | Low -- °F
Precip. -- in
5:53 AM 6:42 PM
Waxing Crescent, 22% visible
Pressure 29.89 in
Visibility 7.0 miles
Clouds Few 2000 ft
Scattered Clouds 3600 ft
Mostly Cloudy 4400 ft
Heat Index 83 °F
Dew Point 74 °F
Humidity 85%
Rainfall 0.02 in
Snow Depth Not available.
UV 0.0 out of 12
Pollen Not available.
Air Quality Not available.
Flu Activity Regional
METAR PGUM 221554Z 08011G18KT 7SM -RA FEW020 SCT036 BKN044 26/24 A2991 RMK AO2 RAB41 SLP122 P0002 T02610239

More Conditions Fewer Conditions

Pressure 29.89 in
Visibility 7.0 miles
Clouds Few 2000 ft
Scattered Clouds 3600 ft
Mostly Cloudy 4400 ft
Heat Index 83 °F
Dew Point 74 °F
Humidity 85%
Rainfall 0.02 in
Snow Depth Not available.
UV 0.0 out of 12
Pollen Not available.
Air Quality Not available.
Flu Activity Regional
METAR PGUM 221554Z 08011G18KT 7SM -RA FEW020 SCT036 BKN044 26/24 A2991 RMK AO2 RAB41 SLP122 P0002 T02610239

More Conditions Fewer Conditions

10-Day Weather Forecast

Almanac

Astronomy

May. 23, 2015 Rise Set
Actual Time
Civil Twilight
Nautical Twilight
Astronomical Twilight
Moon
Length of Visible Light
Length of Day
Tomorrow will be .
, % of the Moon is Illuminated

Today's Extremes

State Highs State Lows

Community

WunderPhotos

Upload Photos

1,823,263 photos uploaded!

WunderBlogs® & News

Nearby

Air Quality

  Air Quality AQ Index Pollutant
Not available.

Snow Depth

Station Depth Elevation

Earthquake Activity

City Distance Mag. Time & Date
Minimum magnitude displayed is 2.5.

Coastal Water Temperatures

Place Temperature

Stations

Nearby Weather Stations

Station Location Temp. Windchill Dew Point Humidity Wind Precip. Elev Updated Type